Time;durP1;ratioP1;P1;durP2;ratioP2;P2;SDS_P1;SDS_P2;PMS_P1;PMS_P2;Temp;Humidity;BMP_temperature;BMP_pressure;BME280_temperature;BME280_humidity;BME280_pressure;Samples;Min_cycle;Max_cycle;Signal;HPM_P1;HPM_P2
2023/10/13 00:00:36;;;;;;;101.80;47.20;;;14.70;99.90;;;;;;4967079;28;20045;-45
2023/10/13 00:03:02;;;;;;;95.07;44.88;;;14.70;99.90;;;;;;5000059;28;20212;-44
2023/10/13 00:05:30;;;;;;;94.88;44.28;;;14.80;99.90;;;;;;5000982;28;20042;-44
2023/10/13 00:08:00;;;;;;;101.70;44.38;;;14.80;99.90;;;;;;5000913;28;20095;-45
2023/10/13 00:10:35;;;;;;;99.50;43.50;;;14.80;99.90;;;;;;5000511;28;20042;-46
2023/10/13 00:13:15;;;;;;;85.05;40.10;;;14.80;99.90;;;;;;5000259;28;20654;-45
2023/10/13 00:18:19;;;;;;;82.63;39.05;;;14.80;99.90;;;;;;4983419;28;20145;-45
2023/10/13 00:20:49;;;;;;;81.72;38.15;;;15.00;99.90;;;;;;4983443;28;20460;-43
2023/10/13 00:23:20;;;;;;;99.03;41.35;;;15.00;99.90;;;;;;4982294;28;20050;-48
2023/10/13 00:25:56;;;;;;;86.88;38.58;;;15.10;99.90;;;;;;5001086;28;20116;-48
2023/10/13 00:28:24;;;;;;;72.88;37.00;;;15.20;99.90;;;;;;4998159;28;20405;-45
2023/10/13 00:31:00;;;;;;;81.53;36.67;;;15.20;99.90;;;;;;4982901;28;20137;-43
2023/10/13 00:33:27;;;;;;;73.03;34.15;;;15.20;99.90;;;;;;4999685;28;20131;-46
2023/10/13 00:35:52;;;;;;;62.75;32.83;;;15.30;99.90;;;;;;5000745;28;20052;-45
2023/10/13 00:38:19;;;;;;;66.50;32.17;;;15.30;99.90;;;;;;4996613;28;20042;-45
2023/10/13 00:40:52;;;;;;;65.45;30.42;;;15.40;99.90;;;;;;4982278;28;20042;-44
2023/10/13 00:45:48;;;;;;;57.15;30.00;;;15.40;99.90;;;;;;4982303;28;20054;-47
2023/10/13 00:48:14;;;;;;;58.13;29.73;;;15.40;99.90;;;;;;5000401;28;20579;-43
2023/10/13 00:50:41;;;;;;;47.80;27.83;;;15.50;99.90;;;;;;4982522;28;20048;-48
2023/10/13 00:53:08;;;;;;;57.25;29.77;;;15.50;99.90;;;;;;4979266;28;20135;-45
2023/10/13 00:55:34;;;;;;;50.05;27.90;;;15.60;99.90;;;;;;4999101;28;20092;-43
2023/10/13 00:58:03;;;;;;;52.45;27.67;;;15.60;99.90;;;;;;5000475;28;20137;-46
2023/10/13 01:00:32;;;;;;;49.20;25.92;;;15.50;99.90;;;;;;4982311;28;20555;-46
2023/10/13 01:03:06;;;;;;;48.00;25.83;;;15.50;99.90;;;;;;4972026;28;20185;-46
2023/10/13 01:05:33;;;;;;;48.55;27.20;;;15.60;99.90;;;;;;4999780;28;20052;-47
2023/10/13 01:08:03;;;;;;;57.60;27.27;;;15.70;99.90;;;;;;4982112;28;20374;-45
2023/10/13 01:10:32;;;;;;;48.13;26.20;;;15.60;99.90;;;;;;4982444;28;20790;-44
2023/10/13 01:13:02;;;;;;;46.20;26.30;;;15.60;99.90;;;;;;4999549;28;20462;-45
2023/10/13 01:15:30;;;;;;;46.72;25.75;;;15.60;99.90;;;;;;5000214;28;20081;-46
2023/10/13 01:18:16;;;;;;;49.72;25.50;;;15.60;99.90;;;;;;4999991;28;20044;-44
2023/10/13 01:20:45;;;;;;;40.97;25.42;;;15.60;99.90;;;;;;4991829;28;20193;-43
2023/10/13 01:23:18;;;;;;;37.40;22.50;;;15.70;99.90;;;;;;4998121;28;20046;-44
2023/10/13 01:25:45;;;;;;;32.15;20.75;;;15.70;99.90;;;;;;4982358;28;20038;-44
2023/10/13 01:28:16;;;;;;;37.40;21.48;;;15.70;99.90;;;;;;4999588;28;20042;-46
2023/10/13 01:30:44;;;;;;;38.75;22.35;;;15.70;99.90;;;;;;4999791;28;20469;-44
2023/10/13 01:33:10;;;;;;;33.75;21.50;;;15.60;99.90;;;;;;4999367;28;20057;-45
2023/10/13 01:35:42;;;;;;;36.95;24.35;;;15.60;99.90;;;;;;5000399;28;20049;-44
2023/10/13 01:38:08;;;;;;;40.70;24.95;;;15.70;99.90;;;;;;4977340;28;20499;-43
2023/10/13 01:40:35;;;;;;;51.40;27.20;;;15.60;99.90;;;;;;5000116;28;20088;-44
2023/10/13 01:43:01;;;;;;;52.05;28.83;;;15.60;99.90;;;;;;4981354;28;20497;-46
2023/10/13 01:45:30;;;;;;;59.75;27.83;;;15.60;99.90;;;;;;5000224;28;20041;-45
2023/10/13 01:47:56;;;;;;;50.33;28.15;;;15.70;99.90;;;;;;5000358;28;20042;-45
2023/10/13 01:50:29;;;;;;;48.63;27.45;;;15.70;99.90;;;;;;4965749;28;20061;-45
2023/10/13 01:53:10;;;;;;;;;;;15.70;99.90;;;;;;4999678;28;20046;-43
2023/10/13 01:55:39;;;;;;;41.05;25.02;;;15.80;99.90;;;;;;4977946;28;19971;-43
2023/10/13 01:58:13;;;;;;;47.85;28.40;;;15.80;99.90;;;;;;4982375;28;20293;-43
2023/10/13 02:00:41;;;;;;;58.47;32.58;;;15.80;99.90;;;;;;4981309;28;20058;-45
2023/10/13 02:03:17;;;;;;;66.65;32.70;;;15.70;99.90;;;;;;4987401;28;20072;-44
2023/10/13 02:05:48;;;;;;;71.88;34.50;;;15.80;99.90;;;;;;4964981;28;20041;-44
2023/10/13 02:08:24;;;;;;;65.32;33.78;;;15.70;99.90;;;;;;4999211;28;20400;-44
2023/10/13 02:10:52;;;;;;;74.40;35.45;;;15.90;99.90;;;;;;4998120;28;20052;-47
2023/10/13 02:13:20;;;;;;;76.53;36.13;;;15.80;99.90;;;;;;4981045;28;20053;-47
2023/10/13 02:15:47;;;;;;;72.45;36.65;;;15.80;99.90;;;;;;4998210;28;20682;-48
2023/10/13 02:18:27;;;;;;;68.93;32.90;;;15.90;99.90;;;;;;4999881;28;20495;-45
2023/10/13 02:20:55;;;;;;;73.97;37.30;;;15.90;99.90;;;;;;4997582;28;20042;-45
2023/10/13 02:23:25;;;;;;;70.88;36.05;;;15.80;99.90;;;;;;4998438;28;20042;-46
2023/10/13 02:26:00;;;;;;;67.13;35.92;;;15.80;99.90;;;;;;4999402;28;20563;-44
2023/10/13 02:28:30;;;;;;;71.38;36.30;;;15.80;99.90;;;;;;4999412;28;20432;-44
2023/10/13 02:30:57;;;;;;;74.70;38.63;;;15.80;99.90;;;;;;4999094;28;20080;-45
2023/10/13 02:33:29;;;;;;;76.93;39.10;;;15.80;99.90;;;;;;4981816;28;20169;-43
2023/10/13 02:35:59;;;;;;;81.87;38.60;;;15.70;99.90;;;;;;4998052;28;20046;-48
2023/10/13 02:38:34;;;;;;;72.75;39.38;;;15.80;99.90;;;;;;4998328;28;20387;-45
2023/10/13 02:41:07;;;;;;;73.30;39.15;;;15.70;99.90;;;;;;4982248;28;20042;-47
2023/10/13 02:43:37;;;;;;;88.15;40.78;;;15.80;99.90;;;;;;5002817;28;20076;-45
2023/10/13 02:46:04;;;;;;;83.82;39.70;;;15.70;99.90;;;;;;4984339;28;20400;-45
2023/10/13 02:48:32;;;;;;;83.55;38.70;;;15.90;99.90;;;;;;5003437;28;20045;-48
2023/10/13 02:51:02;;;;;;;61.72;32.30;;;15.80;99.90;;;;;;5000969;28;20092;-46
2023/10/13 02:53:28;;;;;;;57.75;33.08;;;15.70;99.90;;;;;;5001963;28;20500;-46
2023/10/13 02:55:58;;;;;;;61.53;33.30;;;15.80;99.90;;;;;;5002815;28;20045;-46
2023/10/13 02:58:37;;;;;;;48.88;28.98;;;15.90;99.90;;;;;;4985126;28;20046;-45
2023/10/13 03:01:16;;;;;;;49.92;28.10;;;15.90;99.90;;;;;;5002530;28;20408;-45
2023/10/13 03:03:50;;;;;;;34.40;23.35;;;15.80;99.90;;;;;;4984842;28;20108;-45
2023/10/13 03:06:17;;;;;;;37.58;24.42;;;15.80;99.90;;;;;;5002447;28;20426;-45
2023/10/13 03:08:46;;;;;;;38.35;23.27;;;15.80;99.90;;;;;;5002586;28;20361;-44
2023/10/13 03:11:13;;;;;;;44.13;24.98;;;15.80;99.90;;;;;;4984111;28;20037;-44
2023/10/13 03:13:44;;;;;;;41.55;25.42;;;15.70;99.90;;;;;;5001976;28;20077;-46
2023/10/13 03:16:16;;;;;;;37.33;24.90;;;15.80;99.90;;;;;;5002255;28;20046;-45
2023/10/13 03:18:56;;;;;;;44.08;26.83;;;15.80;99.90;;;;;;5002288;28;20113;-43
2023/10/13 03:21:29;;;;;;;45.95;30.20;;;15.70;99.90;;;;;;4983451;28;20057;-46
2023/10/13 03:24:04;;;;;;;;;;;15.70;99.90;;;;;;5002786;28;20057;-45
2023/10/13 03:26:34;;;;;;;43.63;28.75;;;15.80;99.90;;;;;;5001955;28;19921;-46
2023/10/13 03:29:03;;;;;;;52.15;30.67;;;15.80;99.90;;;;;;4984421;28;20053;-45
2023/10/13 03:31:30;;;;;;;44.95;30.17;;;15.90;99.90;;;;;;5001226;28;20049;-45
2023/10/13 03:33:59;;;;;;;52.13;32.65;;;15.80;99.90;;;;;;5002719;28;20050;-45
2023/10/13 03:39:13;;;;;;;57.92;32.72;;;15.80;99.90;;;;;;4996460;28;20050;-47
2023/10/13 03:41:40;;;;;;;43.45;28.42;;;15.80;99.90;;;;;;5002016;28;20050;-44
2023/10/13 03:44:13;;;;;;;44.15;30.08;;;15.80;99.90;;;;;;5002490;28;20499;-45
2023/10/13 03:46:41;;;;;;;;;;;15.80;99.90;;;;;;4984122;28;20116;-46
2023/10/13 03:49:12;;;;;;;47.88;29.15;;;15.70;99.90;;;;;;4984480;28;19928;-44
2023/10/13 03:51:39;;;;;;;53.35;30.73;;;15.90;99.90;;;;;;4983648;28;20053;-45
2023/10/13 03:54:08;;;;;;;56.92;31.60;;;15.90;99.90;;;;;;5002094;28;20050;-46
2023/10/13 03:56:40;;;;;;;55.10;31.48;;;15.80;99.90;;;;;;5001910;28;20046;-45
2023/10/13 03:59:09;;;;;;;64.70;33.35;;;15.90;99.90;;;;;;5001702;28;20053;-44
2023/10/13 04:17:45;;;;;;;69.38;33.67;;;15.80;99.90;;;;;;4983488;28;20058;-45
2023/10/13 04:25:51;;;;;;;73.95;34.60;;;15.80;99.90;;;;;;5001515;28;20046;-45
2023/10/13 04:33:48;;;;;;;78.57;35.38;;;15.80;99.90;;;;;;5000513;28;20558;-46
2023/10/13 04:39:09;;;;;;;64.40;32.53;;;15.70;99.90;;;;;;4996734;28;20137;-45
2023/10/13 04:41:41;;;;;;;70.53;33.42;;;15.90;99.90;;;;;;4989031;28;20053;-46
2023/10/13 04:46:54;;;;;;;64.82;32.95;;;15.70;99.90;;;;;;5001096;28;20573;-43
2023/10/13 04:55:24;;;;;;;61.67;30.25;;;15.80;99.90;;;;;;5000762;28;20137;-44
2023/10/13 04:58:00;;;;;;;68.00;30.17;;;15.70;99.90;;;;;;4999666;28;20041;-44
2023/10/13 05:01:09;;;;;;;56.63;28.80;;;15.80;99.90;;;;;;5001244;28;20452;-44
2023/10/13 05:44:33;;;;;;;58.88;27.27;;;15.70;99.90;;;;;;4982908;28;19928;-44
2023/10/13 05:44:56;;;;;;;26.88;18.95;;;15.40;99.90;;;;;;5000736;28;20493;-44
2023/10/13 05:48:11;;;;;;;27.98;18.30;;;15.50;99.90;;;;;;4982444;28;20192;-46
2023/10/13 06:29:19;;;;;;;18.20;13.60;;;15.60;99.90;;;;;;4939289;29;20003;-45
2023/10/13 06:31:45;;;;;;;17.55;14.50;;;15.60;99.90;;;;;;4963243;28;20132;-44
2023/10/13 06:34:15;;;;;;;16.35;13.00;;;15.60;99.90;;;;;;4984872;28;20057;-46
2023/10/13 06:36:46;;;;;;;18.02;13.38;;;15.70;99.90;;;;;;4985000;28;20092;-44
2023/10/13 06:39:34;;;;;;;17.65;12.90;;;15.80;99.90;;;;;;4998849;28;20120;-46
2023/10/13 06:42:00;;;;;;;14.93;11.73;;;15.80;99.90;;;;;;5001390;28;20452;-45
2023/10/13 06:44:26;;;;;;;15.93;10.55;;;15.70;99.90;;;;;;5001747;28;20037;-44
2023/10/13 06:46:52;;;;;;;17.55;9.98;;;15.90;99.90;;;;;;5000740;28;20038;-44
2023/10/13 06:49:18;;;;;;;16.92;8.75;;;15.80;99.90;;;;;;4983856;28;20460;-43
2023/10/13 06:51:46;;;;;;;14.90;9.15;;;15.80;99.90;;;;;;5001558;28;20069;-44
2023/10/13 06:54:21;;;;;;;13.85;8.93;;;15.90;99.90;;;;;;5001906;28;20452;-46
2023/10/13 06:56:51;;;;;;;15.85;9.30;;;16.00;99.90;;;;;;5002454;28;20448;-45
2023/10/13 06:59:17;;;;;;;13.02;8.38;;;15.90;99.90;;;;;;5002381;28;20050;-45
2023/10/13 07:01:44;;;;;;;15.80;8.43;;;16.00;99.90;;;;;;5002210;28;20081;-44
2023/10/13 07:04:13;;;;;;;14.60;8.82;;;15.90;99.90;;;;;;4992471;28;20053;-45
2023/10/13 07:06:54;;;;;;;12.48;8.13;;;15.80;99.90;;;;;;5002269;28;20041;-44
2023/10/13 07:12:03;;;;;;;16.65;7.38;;;15.90;99.90;;;;;;4969540;28;20409;-45
2023/10/13 07:14:29;;;;;;;16.23;9.18;;;15.90;99.90;;;;;;4983845;28;20439;-46
2023/10/13 07:17:02;;;;;;;15.82;8.05;;;15.80;99.90;;;;;;4983982;28;20046;-44
2023/10/13 07:19:28;;;;;;;;;;;15.90;99.90;;;;;;5001101;28;20132;-45
2023/10/13 07:21:58;;;;;;;15.25;8.77;;;15.80;99.90;;;;;;4983042;28;19929;-43
2023/10/13 07:24:33;;;;;;;17.83;8.90;;;15.80;99.90;;;;;;4983771;28;20054;-44
2023/10/13 07:27:04;;;;;;;20.40;9.63;;;15.90;99.90;;;;;;4983986;28;20360;-44
2023/10/13 07:29:30;;;;;;;24.13;9.50;;;15.80;99.90;;;;;;5001213;28;20112;-45
2023/10/13 07:31:56;;;;;;;20.85;9.10;;;15.80;99.90;;;;;;5001274;28;20092;-44
2023/10/13 07:34:24;;;;;;;18.15;9.40;;;15.90;99.90;;;;;;4983399;28;20119;-46
2023/10/13 07:37:01;;;;;;;20.50;9.52;;;15.80;99.90;;;;;;5001253;28;20473;-45
2023/10/13 07:39:34;;;;;;;22.38;8.25;;;15.80;99.90;;;;;;4981866;28;20500;-45
2023/10/13 07:42:03;;;;;;;26.67;11.27;;;15.90;99.90;;;;;;4983417;28;20120;-46
2023/10/13 07:44:33;;;;;;;20.17;9.07;;;15.80;99.90;;;;;;4983934;28;20046;-47
2023/10/13 07:46:59;;;;;;;22.70;10.63;;;15.90;99.90;;;;;;5001472;28;20053;-45
2023/10/13 07:49:39;;;;;;;24.48;9.80;;;15.90;99.90;;;;;;5001182;28;20107;-44
2023/10/13 07:54:55;;;;;;;23.30;10.20;;;15.90;99.90;;;;;;4983168;28;20521;-44
2023/10/13 07:57:29;;;;;;;24.58;11.35;;;15.90;99.90;;;;;;5001483;28;20052;-43
2023/10/13 08:00:10;;;;;;;;;;;16.10;99.90;;;;;;4976417;28;20046;-47
2023/10/13 08:02:48;;;;;;;23.60;10.27;;;15.90;99.90;;;;;;4994582;28;19925;-47
2023/10/13 08:05:24;;;;;;;24.85;11.13;;;16.00;99.90;;;;;;4990960;28;20513;-45
2023/10/13 08:07:52;;;;;;;22.67;11.27;;;15.90;99.90;;;;;;4996027;28;20437;-47
2023/10/13 08:10:18;;;;;;;18.27;10.48;;;15.90;99.90;;;;;;4993286;28;20041;-46
2023/10/13 08:12:46;;;;;;;23.63;10.70;;;15.90;99.90;;;;;;4974334;28;20160;-45
2023/10/13 08:15:20;;;;;;;18.48;11.60;;;16.00;99.90;;;;;;4997280;28;20828;-47
2023/10/13 08:17:46;;;;;;;24.35;11.32;;;15.90;99.90;;;;;;4993057;28;20453;-49
2023/10/13 08:20:12;;;;;;;19.23;10.38;;;16.00;99.90;;;;;;4994236;28;20659;-47
2023/10/13 08:22:39;;;;;;;18.58;10.95;;;15.90;99.90;;;;;;4985462;28;20520;-47
2023/10/13 08:25:20;;;;;;;17.65;11.32;;;16.00;99.90;;;;;;4996641;28;20125;-45
2023/10/13 08:28:04;;;;;;;20.73;10.85;;;16.00;99.90;;;;;;4976173;28;20104;-48
2023/10/13 08:30:42;;;;;;;19.67;11.70;;;16.00;99.90;;;;;;4974145;28;20528;-45
2023/10/13 08:33:17;;;;;;;21.58;10.88;;;16.10;99.90;;;;;;4998992;28;20048;-44
2023/10/13 08:35:54;;;;;;;27.67;12.43;;;16.10;99.90;;;;;;4999190;28;20057;-47
2023/10/13 08:38:28;;;;;;;20.08;10.88;;;16.20;99.90;;;;;;5000188;28;20045;-44
2023/10/13 08:41:53;;;;;;;21.23;11.30;;;16.20;99.90;;;;;;4999108;28;20096;-45
2023/10/13 08:43:53;;;;;;;18.75;10.88;;;16.20;99.90;;;;;;4971851;28;20523;-44
2023/10/13 08:46:28;;;;;;;21.63;11.75;;;16.20;99.90;;;;;;4999296;28;20392;-47
2023/10/13 08:55:03;;;;;;;21.05;12.43;;;16.40;99.90;;;;;;4952033;28;20080;-44
2023/10/13 08:57:35;;;;;;;23.23;13.75;;;16.50;99.90;;;;;;4999588;28;20046;-46
2023/10/13 09:00:27;;;;;;;22.00;13.68;;;16.50;99.90;;;;;;5000138;28;20309;-45
2023/10/13 09:05:41;;;;;;;23.00;14.85;;;16.60;99.90;;;;;;4982022;28;20564;-45
2023/10/13 09:08:15;;;;;;;22.35;15.35;;;16.80;99.90;;;;;;4982314;28;20505;-47
2023/10/13 09:10:44;;;;;;;19.52;13.13;;;16.90;99.90;;;;;;4985962;28;20045;-46
2023/10/13 09:13:18;;;;;;;17.33;12.73;;;17.10;99.90;;;;;;5000325;28;20317;-44
2023/10/13 09:15:59;;;;;;;19.13;13.75;;;17.10;99.90;;;;;;4982188;28;20550;-47
2023/10/13 09:21:55;;;;;;;19.55;12.15;;;17.30;99.90;;;;;;4980326;28;20053;-47
2023/10/13 09:24:16;;;;;;;19.67;11.05;;;17.30;99.90;;;;;;4989079;28;20061;-46
2023/10/13 09:26:41;;;;;;;21.58;10.60;;;17.40;99.90;;;;;;4981851;28;20388;-45
2023/10/13 09:29:20;;;;;;;20.30;10.00;;;17.50;99.90;;;;;;4982604;28;20509;-45
2023/10/13 09:32:03;;;;;;;20.48;9.80;;;17.60;99.90;;;;;;4999702;28;20056;-44
2023/10/13 09:34:29;;;;;;;16.95;9.55;;;17.70;99.90;;;;;;5000695;28;20257;-43
2023/10/13 09:36:59;;;;;;;20.50;10.13;;;17.70;99.90;;;;;;4981433;28;20092;-44
2023/10/13 09:42:23;;;;;;;19.20;10.07;;;17.80;99.90;;;;;;4981163;28;20149;-45
2023/10/13 09:44:55;;;;;;;20.00;10.55;;;17.80;99.90;;;;;;5003240;28;20388;-48
2023/10/13 09:47:36;;;;;;;20.45;9.25;;;17.90;99.90;;;;;;4986412;28;20052;-46
2023/10/13 09:50:05;;;;;;;18.40;9.48;;;17.90;99.90;;;;;;4990535;28;20045;-44
2023/10/13 09:52:31;;;;;;;19.50;9.40;;;18.00;99.90;;;;;;5002890;28;20163;-48
2023/10/13 09:55:23;;;;;;;17.52;9.07;;;18.10;99.90;;;;;;5003309;28;20129;-47
2023/10/13 09:58:13;;;;;;;17.33;8.90;;;18.20;99.90;;;;;;4995831;28;20381;-47
2023/10/13 10:03:15;;;;;;;18.08;9.35;;;18.10;99.90;;;;;;5003445;28;20060;-42
2023/10/13 10:06:03;;;;;;;18.63;8.55;;;18.10;99.90;;;;;;5003053;28;20048;-46
2023/10/13 10:08:33;;;;;;;16.67;8.95;;;18.20;99.90;;;;;;4985666;28;20372;-46
2023/10/13 10:11:20;;;;;;;15.95;8.65;;;18.20;99.90;;;;;;5002763;28;20201;-45
2023/10/13 10:14:08;;;;;;;17.08;9.77;;;18.10;99.90;;;;;;5002554;28;20049;-45
2023/10/13 10:16:59;;;;;;;18.55;9.18;;;18.20;99.90;;;;;;5000860;28;20065;-42
2023/10/13 10:19:27;;;;;;;16.73;9.15;;;18.20;99.90;;;;;;5003213;28;20121;-44
2023/10/13 10:22:20;;;;;;;16.50;9.05;;;18.30;99.90;;;;;;4984067;28;20503;-45
2023/10/13 10:25:26;;;;;;;21.13;9.63;;;18.30;99.90;;;;;;5002896;28;20107;-45
2023/10/13 10:28:00;;;;;;;19.92;9.43;;;18.30;99.90;;;;;;4983930;28;20501;-43
2023/10/13 10:30:33;;;;;;;29.00;10.48;;;18.40;99.90;;;;;;4985909;28;20056;-43
2023/10/13 10:32:59;;;;;;;21.98;9.60;;;18.50;99.90;;;;;;4985929;28;20050;-45
2023/10/13 10:35:32;;;;;;;20.27;9.15;;;18.50;99.90;;;;;;5003418;28;20034;-46
2023/10/13 10:38:24;;;;;;;25.75;10.05;;;18.50;99.90;;;;;;5001264;28;20049;-47
2023/10/13 10:40:59;;;;;;;25.52;10.52;;;18.70;99.90;;;;;;5002422;28;20046;-43
2023/10/13 10:43:41;;;;;;;19.40;9.57;;;18.70;99.90;;;;;;4985446;28;20053;-46
2023/10/13 10:46:17;;;;;;;20.65;8.57;;;18.90;99.90;;;;;;5003248;28;20057;-47
2023/10/13 10:48:43;;;;;;;21.23;9.20;;;19.00;99.90;;;;;;5003305;28;20531;-43
2023/10/13 10:51:44;;;;;;;21.70;9.38;;;19.10;99.90;;;;;;5002615;28;20129;-42
2023/10/13 10:54:12;;;;;;;21.77;8.73;;;19.10;99.90;;;;;;4999062;28;20591;-45
2023/10/13 10:56:38;;;;;;;19.25;8.95;;;19.20;99.90;;;;;;4969193;28;20045;-47
2023/10/13 10:59:05;;;;;;;20.05;9.23;;;19.20;99.90;;;;;;5003157;28;20046;-46
2023/10/13 11:01:38;;;;;;;18.50;8.45;;;19.10;99.90;;;;;;5002361;28;20061;-45
2023/10/13 11:04:08;;;;;;;20.70;8.40;;;19.00;99.90;;;;;;5002781;28;20089;-47
2023/10/13 11:06:41;;;;;;;20.20;8.75;;;19.00;99.90;;;;;;5002810;28;20054;-46
2023/10/13 11:11:57;;;;;;;15.85;7.55;;;18.90;99.90;;;;;;5000565;28;20489;-45
2023/10/13 11:14:28;;;;;;;18.60;8.65;;;18.90;99.90;;;;;;5000134;28;20861;-47
2023/10/13 11:16:59;;;;;;;25.45;8.65;;;18.90;99.90;;;;;;4984464;28;20034;-47
2023/10/13 11:19:42;;;;;;;25.58;10.18;;;18.90;99.90;;;;;;4983852;28;20038;-47
2023/10/13 11:22:29;;;;;;;21.55;8.43;;;18.80;99.90;;;;;;4999772;28;20049;-48
2023/10/13 11:24:59;;;;;;;20.77;9.18;;;18.70;99.90;;;;;;5001293;28;20050;-44
2023/10/13 11:27:44;;;;;;;17.67;8.57;;;18.70;99.90;;;;;;5002053;28;20101;-45
2023/10/13 11:30:14;;;;;;;26.58;8.95;;;18.60;99.90;;;;;;5002234;28;20062;-48
2023/10/13 11:32:41;;;;;;;18.52;9.00;;;18.60;99.90;;;;;;4968190;28;20132;-47
2023/10/13 11:35:20;;;;;;;20.20;8.80;;;18.50;99.90;;;;;;5001897;28;20213;-49
2023/10/13 11:38:13;;;;;;;16.40;8.43;;;18.50;99.90;;;;;;4977138;28;20118;-46
2023/10/13 11:41:06;;;;;;;21.00;8.23;;;18.50;99.90;;;;;;5001851;28;20054;-45
2023/10/13 11:49:13;;;;;;;22.55;10.18;;;18.70;99.90;;;;;;5002226;28;20049;-43
2023/10/13 11:51:46;;;;;;;19.35;8.23;;;18.70;99.90;;;;;;5000940;28;20444;-46
2023/10/13 11:54:15;;;;;;;19.48;9.00;;;18.70;99.90;;;;;;5001940;28;20057;-44
2023/10/13 11:56:42;;;;;;;21.65;9.77;;;18.80;99.90;;;;;;5002082;28;20037;-46
2023/10/13 11:59:15;;;;;;;15.75;8.23;;;18.80;99.90;;;;;;4983887;28;20624;-46
2023/10/13 12:04:32;;;;;;;26.63;9.48;;;18.90;99.90;;;;;;5001357;28;20057;-44
2023/10/13 12:12:42;;;;;;;20.77;9.85;;;19.00;99.90;;;;;;4937581;28;20094;-43
2023/10/13 12:15:09;;;;;;;20.25;9.30;;;18.90;99.90;;;;;;5001623;28;20124;-46
2023/10/13 12:17:35;;;;;;;24.48;10.35;;;18.90;99.90;;;;;;4988519;28;20473;-45
2023/10/13 12:20:10;;;;;;;17.65;9.63;;;18.90;99.90;;;;;;4987254;28;20046;-45
2023/10/13 12:22:39;;;;;;;22.80;9.93;;;18.80;99.90;;;;;;4988569;28;20120;-46
2023/10/13 12:25:44;;;;;;;25.33;10.88;;;18.70;99.90;;;;;;5001282;28;20041;-45
2023/10/13 12:28:18;;;;;;;20.17;9.55;;;18.70;99.90;;;;;;4982904;28;20089;-45
2023/10/13 12:30:53;;;;;;;17.20;9.07;;;18.60;99.90;;;;;;4982707;28;20161;-46
2023/10/13 12:33:27;;;;;;;24.98;10.23;;;18.60;99.90;;;;;;5000995;28;20283;-45
2023/10/13 12:36:30;;;;;;;19.85;9.45;;;18.60;99.90;;;;;;4982575;28;20046;-46
2023/10/13 12:52:16;;;;;;;22.27;10.65;;;18.30;99.90;;;;;;4982772;28;20457;-44
2023/10/13 12:57:23;;;;;;;18.88;10.82;;;18.30;99.90;;;;;;5001112;28;20153;-44
2023/10/13 12:59:53;;;;;;;24.08;10.82;;;18.20;99.90;;;;;;5000950;28;20461;-45
2023/10/13 13:02:24;;;;;;;16.90;10.18;;;18.20;99.90;;;;;;4999772;28;20480;-44
2023/10/13 13:04:54;;;;;;;23.33;11.27;;;18.10;99.90;;;;;;5000686;28;20084;-47
2023/10/13 13:07:20;;;;;;;21.88;10.43;;;18.10;99.90;;;;;;4998545;28;20046;-46
2023/10/13 13:09:45;;;;;;;24.70;10.95;;;18.10;99.90;;;;;;4966209;28;20106;-43
2023/10/13 13:12:14;;;;;;;21.95;11.48;;;18.10;99.90;;;;;;4965390;28;20333;-45
2023/10/13 13:14:46;;;;;;;16.45;10.68;;;18.00;99.90;;;;;;4982589;28;20457;-45
2023/10/13 13:17:12;;;;;;;26.38;10.57;;;18.00;99.90;;;;;;4999898;28;20045;-45
2023/10/13 13:19:41;;;;;;;21.95;11.68;;;17.90;99.90;;;;;;5001387;28;20056;-45
2023/10/13 13:22:14;;;;;;;27.45;12.52;;;17.90;99.90;;;;;;4983493;28;20107;-46
2023/10/13 13:24:46;;;;;;;;;;;17.90;99.90;;;;;;5001457;28;20056;-43
2023/10/13 13:27:24;;;;;;;22.58;10.95;;;17.90;99.90;;;;;;4999620;28;19925;-44
2023/10/13 13:29:49;;;;;;;25.10;11.23;;;17.90;99.90;;;;;;4982374;28;20046;-46
2023/10/13 13:32:24;;;;;;;24.70;11.82;;;17.90;99.90;;;;;;5002462;28;20045;-44
2023/10/13 13:35:33;;;;;;;22.70;11.38;;;17.90;99.90;;;;;;5003396;28;20420;-47
2023/10/13 13:37:44;;;;;;;21.13;10.52;;;17.90;99.90;;;;;;4988292;28;20053;-47
2023/10/13 13:40:18;;;;;;;20.27;10.65;;;17.90;99.90;;;;;;4999547;28;20666;-45
2023/10/13 13:42:45;;;;;;;23.85;10.95;;;17.90;99.90;;;;;;4981652;28;20057;-46
2023/10/13 13:45:27;;;;;;;25.90;12.65;;;17.90;99.90;;;;;;4999821;28;20341;-44
2023/10/13 13:47:53;;;;;;;20.40;10.90;;;17.90;99.90;;;;;;4981551;28;20042;-42
2023/10/13 13:50:26;;;;;;;21.20;11.80;;;17.80;99.90;;;;;;4981785;28;20124;-47
2023/10/13 13:53:01;;;;;;;21.48;11.05;;;17.80;99.90;;;;;;4999406;28;20046;-47
2023/10/13 13:55:31;;;;;;;19.85;10.88;;;17.80;99.90;;;;;;4999796;28;20130;-43
2023/10/13 13:57:57;;;;;;;19.23;10.50;;;17.80;99.90;;;;;;4987383;28;20042;-43
2023/10/13 14:00:30;;;;;;;21.35;11.63;;;17.80;99.90;;;;;;4981951;28;20042;-47
2023/10/13 14:02:55;;;;;;;21.85;10.32;;;17.90;99.90;;;;;;5000706;28;20042;-46
2023/10/13 14:05:21;;;;;;;21.13;10.68;;;17.90;99.90;;;;;;4982563;28;20104;-47
2023/10/13 14:07:49;;;;;;;21.90;10.57;;;18.00;99.90;;;;;;4998274;28;20293;-44
2023/10/13 14:10:31;;;;;;;20.95;9.40;;;18.10;99.90;;;;;;4999430;28;20076;-43
2023/10/13 14:13:13;;;;;;;28.02;12.02;;;18.10;99.90;;;;;;4998903;28;20054;-44
2023/10/13 14:15:43;;;;;;;19.55;11.20;;;18.20;99.90;;;;;;4982140;28;20092;-44
2023/10/13 14:18:14;;;;;;;21.48;9.52;;;18.20;99.90;;;;;;5000046;28;20336;-45
2023/10/13 14:20:41;;;;;;;22.40;9.75;;;18.30;99.90;;;;;;4981695;28;20046;-44
2023/10/13 14:23:12;;;;;;;22.58;10.30;;;18.30;99.90;;;;;;4982142;28;20046;-44
2023/10/13 14:25:44;;;;;;;18.30;10.20;;;18.30;99.90;;;;;;5000326;28;20088;-43
2023/10/13 14:28:15;;;;;;;20.95;9.57;;;18.20;99.90;;;;;;4976491;28;20057;-44
2023/10/13 14:30:40;;;;;;;18.08;10.07;;;18.20;99.90;;;;;;4984339;28;20144;-46
2023/10/13 14:33:10;;;;;;;21.50;9.90;;;18.30;99.90;;;;;;4985473;28;20049;-47
2023/10/13 14:35:36;;;;;;;18.20;9.48;;;18.30;99.90;;;;;;5003840;28;20045;-45
2023/10/13 14:38:03;;;;;;;22.27;10.13;;;18.20;99.90;;;;;;4995088;28;20049;-46
2023/10/13 14:40:29;;;;;;;21.13;10.70;;;18.30;99.90;;;;;;4984965;28;20708;-44
2023/10/13 14:42:56;;;;;;;28.98;10.77;;;18.20;99.90;;;;;;4985807;28;20046;-46
2023/10/13 14:45:21;;;;;;;19.10;9.10;;;18.20;99.90;;;;;;4985998;28;20128;-46
2023/10/13 14:47:47;;;;;;;21.98;9.93;;;18.20;99.90;;;;;;4980629;28;20052;-45
2023/10/13 14:50:22;;;;;;;22.02;9.95;;;18.20;99.90;;;;;;4985450;28;20089;-45
2023/10/13 14:52:49;;;;;;;20.98;9.90;;;18.10;99.90;;;;;;5003813;28;20069;-46
2023/10/13 14:55:37;;;;;;;21.85;10.55;;;18.10;99.90;;;;;;4985711;28;20800;-47
2023/10/13 14:58:04;;;;;;;22.27;9.73;;;18.10;99.90;;;;;;5003671;28;20049;-44
2023/10/13 15:00:31;;;;;;;20.85;9.18;;;18.10;99.90;;;;;;5003125;28;20081;-44
2023/10/13 15:03:01;;;;;;;23.70;9.55;;;18.10;99.90;;;;;;5003904;28;20041;-43
2023/10/13 15:05:29;;;;;;;20.60;10.05;;;18.10;99.90;;;;;;5003603;28;20125;-44
2023/10/13 15:07:55;;;;;;;18.25;9.90;;;18.00;99.90;;;;;;4985921;28;20049;-47
2023/10/13 15:10:21;;;;;;;19.33;9.73;;;18.00;99.90;;;;;;4968701;28;20147;-44
2023/10/13 15:12:49;;;;;;;17.38;9.63;;;17.90;99.90;;;;;;5004032;28;20590;-45
2023/10/13 15:15:19;;;;;;;29.00;12.35;;;17.90;99.90;;;;;;5003840;28;20144;-47
2023/10/13 15:17:45;;;;;;;18.00;10.48;;;17.80;99.90;;;;;;5003403;28;20501;-47
2023/10/13 15:20:15;;;;;;;16.23;9.60;;;17.80;99.90;;;;;;5002724;28;20766;-45
2023/10/13 15:22:47;;;;;;;19.35;9.93;;;17.80;99.90;;;;;;5003531;28;20493;-45
2023/10/13 15:25:28;;;;;;;19.85;9.85;;;17.70;99.90;;;;;;4984944;28;20620;-46
2023/10/13 15:28:02;;;;;;;21.17;9.98;;;17.70;99.90;;;;;;4985636;28;20448;-45
2023/10/13 15:30:42;;;;;;;23.25;10.70;;;17.70;99.90;;;;;;4984440;28;20052;-46
2023/10/13 15:33:08;;;;;;;20.27;11.15;;;17.70;99.90;;;;;;5003488;28;20480;-44
2023/10/13 15:35:33;;;;;;;21.48;11.00;;;17.60;99.90;;;;;;4985556;28;20046;-47
2023/10/13 15:38:00;;;;;;;24.75;12.52;;;17.60;99.90;;;;;;4997676;28;20121;-44
2023/10/13 15:40:27;;;;;;;28.85;12.77;;;17.60;99.90;;;;;;4984026;28;20119;-43
2023/10/13 15:42:59;;;;;;;32.90;13.23;;;17.50;99.90;;;;;;5003303;28;20036;-46
2023/10/13 15:45:32;;;;;;;20.02;11.38;;;17.50;99.90;;;;;;4984722;28;20141;-45
2023/10/13 15:47:58;;;;;;;20.20;12.25;;;17.40;99.90;;;;;;4981062;28;20034;-44
2023/10/13 15:50:23;;;;;;;26.42;12.82;;;17.50;99.90;;;;;;4983316;28;20460;-46
2023/10/13 15:52:50;;;;;;;23.52;12.75;;;17.50;99.90;;;;;;5002080;28;20045;-46
2023/10/13 15:55:19;;;;;;;23.35;11.25;;;17.40;99.90;;;;;;4984260;28;20041;-45